KRNT - Renton
Updated: Sat, 23-Feb-2019 1:53am PST

 Wind from SSE
Wind: SSE 8 mph , 13 km/h
Temperature: 39°F , 4°C
Wind Chill: 33°F , 1°C
Dew Point: 34°F , 1°C
Humidity: 81%
Barometer: 30.07 inHg , 1018.3 hPa
Visibility: 10 miles , 16 km
Cloud details: 2300 ft
2019/02/23 09:53 KRNT 230953Z AUTO 16007KT 10SM OVC023 04/01 A3007 RMK AO2 SLP186 T00440006
KBFI - Seattle-Boeing
Updated: Sat, 23-Feb-2019 2:46am PST

 Wind from SSE
Wind: SSE 8 mph , 13 km/h
Temperature: 39°F , 4°C
Wind Chill: 33°F , 1°C
Dew Point: 34°F , 1°C
Humidity: 81%
Barometer: 30.07 inHg , 1018.3 hPa
Visibility: 10 miles , 16 km
Cloud details: 1300 ft
2019/02/23 10:46 KBFI 231046Z 15007KT 10SM OVC013 04/01 A3007 RMK AO2 T00390006
 
KSEA - Seattle
Updated: Sat, 23-Feb-2019 1:53am PST

 Wind from S
Wind: S 12 mph , 19 km/h
Temperature: 37°F , 3°C
Wind Chill: 29°F , -2°C
Dew Point: 34°F , 1°C
Humidity: 87%
Barometer: 30.05 inHg , 1017.6 hPa
Visibility: 10 miles , 16 km
Cloud details: 1300 ft
2000 ft
2019/02/23 09:53 KSEA 230953Z 18010KT 10SM BKN013 OVC020 03/01 A3005 RMK AO2 SLP185 T00330006
KSMP - Stampede Pass
Updated: Sat, 23-Feb-2019 2:31am PST
Mist, Overcast
Mist, Overcast
 Wind from varies
Wind: varies 5 mph , 7 km/h
Temperature: 27°F , -3°C
Wind Chill: 21°F , -6°C
Dew Point: 23°F , -5°C
Humidity: 86%
Barometer: 29.90 inHg , 1012.5 hPa
Visibility: 1 mile , 2 km
Cloud details: 300 ft
2019/02/23 10:31 KSMP 231031Z AUTO VRB04KT 1SM BR VV003 M03/M05 A2990 RMK AO2 UPB22E24SNB01E22B24E25 P0000 T10331050 $